Flensburg, MN (56328)

9:51 AM CST on February 10, 2016 (GMT -0600)
Swanville | | Change Station
CLOSE
Current Station
Personal Weather Station
Location: Swanville, MN
Elevation: 1158 ft
Nearby Weather Stations

Elev 1158 ft 45.91 °N, 94.54 °W | Updated 17 seconds ago

Overcast
Overcast
1.7 °F
Feels Like -9 °F
N
5.0
Wind Variable Wind from NNW
Gusts 0.0 mph

Today
High -- | Low -- °F
--% Chance of Precip.
Yesterday
High -- | Low -- °F
Precip. -- in
Pressure 30.11 in
Visibility 10.0 miles
Clouds Mostly Cloudy 6000 ft
Overcast 7500 ft
Windchill -9 °F
Dew Point -4 °F
Humidity 75%
Rainfall 0.00 in
Snow Depth Not available.
7:28 AM 5:36 PM
Waxing Crescent, 6% visible
METAR KLXL 101545Z AUTO 00000KT 10SM BKN060 OVC075 M16/M21 A3011 RMK AO2
Pressure 30.11 in
Visibility 10.0 miles
Clouds Mostly Cloudy 6000 ft
Overcast 7500 ft
Windchill -9 °F
Dew Point -4 °F
Humidity 75%
Rainfall 0.00 in
Snow Depth Not available.
7:28 AM 5:36 PM
Waxing Crescent, 6% visible
METAR KLXL 101545Z AUTO 00000KT 10SM BKN060 OVC075 M16/M21 A3011 RMK AO2

10-Day Weather Forecast

Almanac

Astronomy

Feb. 10, 2016 Rise Set
Actual Time
Civil Twilight
Nautical Twilight
Astronomical Twilight
Moon
Length of Visible Light
Length of Day
Tomorrow will be .
, % of the Moon is Illuminated

Today's Extremes

State Highs State Lows

Community

WunderPhotos

Upload Photos

1,891,863 photos uploaded!

WunderBlog® & News

Nearby

Air Quality

  Air Quality AQ Index Pollutant
Not available.

Snow Depth

Station Depth Elevation

Earthquake Activity

City Distance Mag. Time & Date
Minimum magnitude displayed is 2.5.

Coastal Water Temperatures

Place Temperature

Stations

Nearby Weather Stations

Station Location Temp. Windchill Dew Point Humidity Wind Precip. Elev Updated Type
                   

Watches & Warnings

There are currently no watches in effect.